sensor_id;sensor_type;location;lat;lon;timestamp;pressure;altitude;pressure_sealevel;temperature;humidity
64862;BME280;62652;42.274;-71.436;2024-02-15T02:48:01;100730.0;;;-3.277777777777777;45.7
64862;BME280;62652;42.274;-71.436;2024-02-15T02:49:01;100740.0;;;-3.3888888888888897;46.0
64862;BME280;62652;42.274;-71.436;2024-02-15T02:50:01;100740.0;;;-3.5000000000000004;45.7
64862;BME280;62652;42.274;-71.436;2024-02-15T02:51:01;100730.0;;;-3.3888888888888897;46.6
64862;BME280;62652;42.274;-71.436;2024-02-15T02:52:01;100740.0;;;-3.5000000000000004;46.0
64862;BME280;62652;42.274;-71.436;2024-02-15T02:53:01;100750.0;;;-3.277777777777777;45.9
64862;BME280;62652;42.274;-71.436;2024-02-15T02:54:00;100730.0;;;-3.3888888888888897;45.7
64862;BME280;62652;42.274;-71.436;2024-02-15T02:55:00;100730.0;;;-3.3888888888888897;46.1
64862;BME280;62652;42.274;-71.436;2024-02-15T02:56:01;100740.0;;;-3.3888888888888897;46.1
64862;BME280;62652;42.274;-71.436;2024-02-15T02:57:01;100740.0;;;-3.5000000000000004;46.7
64862;BME280;62652;42.274;-71.436;2024-02-15T02:58:00;100750.0;;;-3.611111111111111;46.7
64862;BME280;62652;42.274;-71.436;2024-02-15T02:59:01;100750.0;;;-3.611111111111111;46.8
64862;BME280;62652;42.274;-71.436;2024-02-15T03:00:01;100760.0;;;-3.611111111111111;47.2
64862;BME280;62652;42.274;-71.436;2024-02-15T03:01:01;100760.0;;;-3.5000000000000004;47.3
64862;BME280;62652;42.274;-71.436;2024-02-15T03:02:01;100760.0;;;-3.5000000000000004;47.8
64862;BME280;62652;42.274;-71.436;2024-02-15T03:03:01;100760.0;;;-3.5000000000000004;47.9
64862;BME280;62652;42.274;-71.436;2024-02-15T03:04:01;100760.0;;;-3.5000000000000004;47.5
64862;BME280;62652;42.274;-71.436;2024-02-15T03:55:01;100810.0;;;-3.7777777777777777;50.0
64862;BME280;62652;42.274;-71.436;2024-02-15T03:56:00;100810.0;;;-3.7777777777777777;50.1
64862;BME280;62652;42.274;-71.436;2024-02-15T03:57:00;100810.0;;;-3.7777777777777777;50.7
64862;BME280;62652;42.274;-71.436;2024-02-15T03:58:00;100810.0;;;-3.7777777777777777;51.4
64862;BME280;62652;42.274;-71.436;2024-02-15T03:59:01;100810.0;;;-3.7777777777777777;51.7
64862;BME280;62652;42.274;-71.436;2024-02-15T04:00:01;100810.0;;;-3.7222222222222223;51.2
64862;BME280;62652;42.274;-71.436;2024-02-15T04:01:00;100820.0;;;-3.7222222222222223;51.6
64862;BME280;62652;42.274;-71.436;2024-02-15T04:02:00;100820.0;;;-3.7777777777777777;51.9
64862;BME280;62652;42.274;-71.436;2024-02-15T04:03:01;100820.0;;;-3.7222222222222223;51.2
64862;BME280;62652;42.274;-71.436;2024-02-15T04:04:00;100820.0;;;-3.7777777777777777;51.5
64862;BME280;62652;42.274;-71.436;2024-02-15T04:05:01;100820.0;;;-3.7222222222222223;51.2
64862;BME280;62652;42.274;-71.436;2024-02-15T04:06:01;100820.0;;;-3.7222222222222223;50.4
64862;BME280;62652;42.274;-71.436;2024-02-15T04:07:00;100830.0;;;-3.7777777777777777;51.5
64862;BME280;62652;42.274;-71.436;2024-02-15T04:08:00;100820.0;;;-3.888888888888889;51.6
64862;BME280;62652;42.274;-71.436;2024-02-15T04:09:00;100820.0;;;-3.888888888888889;51.7
64862;BME280;62652;42.274;-71.436;2024-02-15T04:10:01;100820.0;;;-3.888888888888889;52.2
64862;BME280;62652;42.274;-71.436;2024-02-15T04:11:00;100830.0;;;-3.888888888888889;52.1
64862;BME280;62652;42.274;-71.436;2024-02-15T04:12:00;100820.0;;;-3.888888888888889;52.2
64862;BME280;62652;42.274;-71.436;2024-02-15T04:13:00;100820.0;;;-3.888888888888889;52.7
64862;BME280;62652;42.274;-71.436;2024-02-15T04:14:01;100830.0;;;-3.888888888888889;52.4
64862;BME280;62652;42.274;-71.436;2024-02-15T04:15:01;100830.0;;;-3.7777777777777777;52.4
64862;BME280;62652;42.274;-71.436;2024-02-15T04:16:01;100830.0;;;-3.888888888888889;52.9
64862;BME280;62652;42.274;-71.436;2024-02-15T04:17:02;100830.0;;;-4.0;53.4
64862;BME280;62652;42.274;-71.436;2024-02-15T04:18:00;100830.0;;;-4.111111111111111;53.8
64862;BME280;62652;42.274;-71.436;2024-02-15T04:19:00;100820.0;;;-4.0;53.6
64862;BME280;62652;42.274;-71.436;2024-02-15T04:20:01;100830.0;;;-3.7777777777777777;52.3
64862;BME280;62652;42.274;-71.436;2024-02-15T04:21:00;100830.0;;;-3.7777777777777777;51.7
64862;BME280;62652;42.274;-71.436;2024-02-15T04:22:01;100820.0;;;-3.7222222222222223;51.9
64862;BME280;62652;42.274;-71.436;2024-02-15T04:23:00;100830.0;;;-3.7777777777777777;52.0
64862;BME280;62652;42.274;-71.436;2024-02-15T04:24:00;100830.0;;;-3.888888888888889;52.3
64862;BME280;62652;42.274;-71.436;2024-02-15T04:25:00;100820.0;;;-3.888888888888889;52.1
64862;BME280;62652;42.274;-71.436;2024-02-15T04:26:00;100820.0;;;-3.888888888888889;52.2
64862;BME280;62652;42.274;-71.436;2024-02-15T04:27:01;100820.0;;;-3.888888888888889;52.2
64862;BME280;62652;42.274;-71.436;2024-02-15T04:28:01;100820.0;;;-3.888888888888889;52.5
64862;BME280;62652;42.274;-71.436;2024-02-15T04:29:01;100820.0;;;-3.7777777777777777;51.9
64862;BME280;62652;42.274;-71.436;2024-02-15T04:30:00;100820.0;;;-3.7777777777777777;52.5
64862;BME280;62652;42.274;-71.436;2024-02-15T04:31:00;100820.0;;;-3.888888888888889;53.0
64862;BME280;62652;42.274;-71.436;2024-02-15T04:32:00;100820.0;;;-3.7777777777777777;52.2
64862;BME280;62652;42.274;-71.436;2024-02-15T04:33:00;100820.0;;;-3.7777777777777777;52.4
64862;BME280;62652;42.274;-71.436;2024-02-15T04:34:01;100820.0;;;-4.0;53.2
64862;BME280;62652;42.274;-71.436;2024-02-15T04:35:01;100830.0;;;-4.0;53.4
64862;BME280;62652;42.274;-71.436;2024-02-15T04:36:01;100830.0;;;-4.0;53.2
64862;BME280;62652;42.274;-71.436;2024-02-15T04:37:00;100830.0;;;-4.111111111111111;54.1
64862;BME280;62652;42.274;-71.436;2024-02-15T04:38:00;100830.0;;;-4.0;54.3
64862;BME280;62652;42.274;-71.436;2024-02-15T04:39:01;100830.0;;;-3.888888888888889;53.4
64862;BME280;62652;42.274;-71.436;2024-02-15T04:40:00;100810.0;;;-3.888888888888889;53.6
64862;BME280;62652;42.274;-71.436;2024-02-15T04:41:01;100820.0;;;-4.0;53.5
64862;BME280;62652;42.274;-71.436;2024-02-15T04:42:00;100820.0;;;-3.888888888888889;53.3
64862;BME280;62652;42.274;-71.436;2024-02-15T04:43:01;100820.0;;;-4.0;53.8
64862;BME280;62652;42.274;-71.436;2024-02-15T04:44:00;100830.0;;;-3.888888888888889;53.3
64862;BME280;62652;42.274;-71.436;2024-02-15T04:45:00;100820.0;;;-4.0;54.0
64862;BME280;62652;42.274;-71.436;2024-02-15T04:46:00;100830.0;;;-4.0;52.9
64862;BME280;62652;42.274;-71.436;2024-02-15T04:47:00;100830.0;;;-4.0;53.2
64862;BME280;62652;42.274;-71.436;2024-02-15T04:48:01;100830.0;;;-4.0;54.3
64862;BME280;62652;42.274;-71.436;2024-02-15T04:49:00;100830.0;;;-3.888888888888889;54.6
64862;BME280;62652;42.274;-71.436;2024-02-15T04:50:02;100830.0;;;-4.0;55.1
64862;BME280;62652;42.274;-71.436;2024-02-15T04:51:00;100840.0;;;-4.111111111111111;55.4
64862;BME280;62652;42.274;-71.436;2024-02-15T04:52:00;100830.0;;;-4.0;53.6
64862;BME280;62652;42.274;-71.436;2024-02-15T04:53:00;100830.0;;;-4.0;54.1
64862;BME280;62652;42.274;-71.436;2024-02-15T04:54:00;100830.0;;;-4.0;53.7
64862;BME280;62652;42.274;-71.436;2024-02-15T04:55:00;100830.0;;;-3.888888888888889;54.5
64862;BME280;62652;42.274;-71.436;2024-02-15T04:56:00;100830.0;;;-4.0;54.0
64862;BME280;62652;42.274;-71.436;2024-02-15T04:57:00;100830.0;;;-4.0;53.9
64862;BME280;62652;42.274;-71.436;2024-02-15T04:58:01;100830.0;;;-3.888888888888889;53.5
64862;BME280;62652;42.274;-71.436;2024-02-15T04:59:00;100830.0;;;-4.0;53.8
64862;BME280;62652;42.274;-71.436;2024-02-15T05:00:01;100830.0;;;-4.0;54.3
64862;BME280;62652;42.274;-71.436;2024-02-15T05:01:00;100830.0;;;-4.111111111111111;54.8
64862;BME280;62652;42.274;-71.436;2024-02-15T05:02:00;100830.0;;;-4.0;53.7
64862;BME280;62652;42.274;-71.436;2024-02-15T05:03:01;100820.0;;;-4.0;54.2
64862;BME280;62652;42.274;-71.436;2024-02-15T05:04:01;100840.0;;;-4.111111111111111;54.7
64862;BME280;62652;42.274;-71.436;2024-02-15T05:05:00;100840.0;;;-4.222222222222223;55.7
64862;BME280;62652;42.274;-71.436;2024-02-15T05:06:00;100840.0;;;-4.111111111111111;55.6
64862;BME280;62652;42.274;-71.436;2024-02-15T05:07:00;100840.0;;;-4.0;54.5
64862;BME280;62652;42.274;-71.436;2024-02-15T05:08:00;100830.0;;;-3.888888888888889;53.9
64862;BME280;62652;42.274;-71.436;2024-02-15T05:09:00;100840.0;;;-4.111111111111111;55.1
64862;BME280;62652;42.274;-71.436;2024-02-15T05:10:01;100840.0;;;-4.0;53.9
64862;BME280;62652;42.274;-71.436;2024-02-15T05:11:00;100840.0;;;-4.0;54.2
64862;BME280;62652;42.274;-71.436;2024-02-15T05:12:01;100840.0;;;-4.111111111111111;54.5
64862;BME280;62652;42.274;-71.436;2024-02-15T05:13:00;100830.0;;;-4.111111111111111;54.5
64862;BME280;62652;42.274;-71.436;2024-02-15T05:14:00;100840.0;;;-4.0;54.2
64862;BME280;62652;42.274;-71.436;2024-02-15T05:15:01;100840.0;;;-4.0;54.6
64862;BME280;62652;42.274;-71.436;2024-02-15T05:16:00;100820.0;;;-4.0;54.4
64862;BME280;62652;42.274;-71.436;2024-02-15T05:17:00;100820.0;;;-4.111111111111111;54.4
64862;BME280;62652;42.274;-71.436;2024-02-15T05:18:00;100830.0;;;-4.111111111111111;54.9
64862;BME280;62652;42.274;-71.436;2024-02-15T05:19:01;100830.0;;;-4.222222222222223;55.5
64862;BME280;62652;42.274;-71.436;2024-02-15T05:20:00;100820.0;;;-4.277777777777778;56.9
64862;BME280;62652;42.274;-71.436;2024-02-15T05:21:00;100840.0;;;-4.222222222222223;55.7
64862;BME280;62652;42.274;-71.436;2024-02-15T05:22:00;100830.0;;;-4.111111111111111;54.5
64862;BME280;62652;42.274;-71.436;2024-02-15T05:23:03;100840.0;;;-4.111111111111111;54.9
64862;BME280;62652;42.274;-71.436;2024-02-15T05:24:00;100840.0;;;-4.0;55.5
64862;BME280;62652;42.274;-71.436;2024-02-15T05:25:00;100830.0;;;-4.222222222222223;56.2
64862;BME280;62652;42.274;-71.436;2024-02-15T05:26:00;100840.0;;;-4.222222222222223;55.8
64862;BME280;62652;42.274;-71.436;2024-02-15T05:27:00;100840.0;;;-4.222222222222223;56.1
64862;BME280;62652;42.274;-71.436;2024-02-15T05:28:01;100840.0;;;-4.111111111111111;55.5
64862;BME280;62652;42.274;-71.436;2024-02-15T05:29:01;100850.0;;;-4.0;54.9
64862;BME280;62652;42.274;-71.436;2024-02-15T05:30:00;100840.0;;;-4.0;54.4
64862;BME280;62652;42.274;-71.436;2024-02-15T05:32:00;100840.0;;;-4.111111111111111;55.1
64862;BME280;62652;42.274;-71.436;2024-02-15T05:33:00;100840.0;;;-4.111111111111111;55.2
64862;BME280;62652;42.274;-71.436;2024-02-15T05:34:00;100840.0;;;-4.111111111111111;56.1
64862;BME280;62652;42.274;-71.436;2024-02-15T05:35:01;100840.0;;;-4.222222222222223;55.9
64862;BME280;62652;42.274;-71.436;2024-02-15T05:36:00;100850.0;;;-4.277777777777778;56.8
64862;BME280;62652;42.274;-71.436;2024-02-15T05:37:00;100850.0;;;-4.222222222222223;55.5
64862;BME280;62652;42.274;-71.436;2024-02-15T05:38:00;100850.0;;;-4.277777777777778;56.6
64862;BME280;62652;42.274;-71.436;2024-02-15T05:39:01;100850.0;;;-4.222222222222223;57.0
64862;BME280;62652;42.274;-71.436;2024-02-15T05:40:00;100860.0;;;-4.111111111111111;56.9
64862;BME280;62652;42.274;-71.436;2024-02-15T05:41:00;100860.0;;;-4.0;55.6
64862;BME280;62652;42.274;-71.436;2024-02-15T05:42:01;100850.0;;;-4.111111111111111;56.0
64862;BME280;62652;42.274;-71.436;2024-02-15T05:43:00;100860.0;;;-4.222222222222223;56.2
64862;BME280;62652;42.274;-71.436;2024-02-15T05:44:01;100860.0;;;-4.222222222222223;56.3
64862;BME280;62652;42.274;-71.436;2024-02-15T05:46:00;100860.0;;;-4.222222222222223;57.0
64862;BME280;62652;42.274;-71.436;2024-02-15T05:47:00;100860.0;;;-4.222222222222223;56.1
64862;BME280;62652;42.274;-71.436;2024-02-15T05:48:00;100870.0;;;-4.111111111111111;56.6
64862;BME280;62652;42.274;-71.436;2024-02-15T05:49:00;100860.0;;;-4.111111111111111;56.6
64862;BME280;62652;42.274;-71.436;2024-02-15T05:50:00;100870.0;;;-4.111111111111111;55.3
64862;BME280;62652;42.274;-71.436;2024-02-15T05:51:00;100870.0;;;-4.0;54.9
64862;BME280;62652;42.274;-71.436;2024-02-15T05:52:01;100870.0;;;-4.0;55.3
64862;BME280;62652;42.274;-71.436;2024-02-15T05:53:00;100880.0;;;-4.111111111111111;56.0
64862;BME280;62652;42.274;-71.436;2024-02-15T05:54:01;100870.0;;;-4.0;55.9
64862;BME280;62652;42.274;-71.436;2024-02-15T13:10:00;101220.0;;;-1.8888888888888882;50.3
64862;BME280;62652;42.274;-71.436;2024-02-15T13:11:00;101210.0;;;-1.8888888888888882;51.0
64862;BME280;62652;42.274;-71.436;2024-02-15T13:12:00;101210.0;;;-1.8888888888888882;50.5
64862;BME280;62652;42.274;-71.436;2024-02-15T13:13:00;101210.0;;;-1.722222222222223;50.0
64862;BME280;62652;42.274;-71.436;2024-02-15T13:14:00;101220.0;;;-1.722222222222223;50.8
64862;BME280;62652;42.274;-71.436;2024-02-15T13:15:01;101220.0;;;-1.6111111111111103;49.8
64862;BME280;62652;42.274;-71.436;2024-02-15T13:16:00;101220.0;;;-1.3888888888888888;49.1
64862;BME280;62652;42.274;-71.436;2024-02-15T13:17:00;101220.0;;;-1.4999999999999996;48.9
64862;BME280;62652;42.274;-71.436;2024-02-15T13:18:00;101230.0;;;-1.4999999999999996;47.9
64862;BME280;62652;42.274;-71.436;2024-02-15T13:24:01;101230.0;;;-1.6111111111111103;50.3
64862;BME280;62652;42.274;-71.436;2024-02-15T13:26:00;101230.0;;;-1.2777777777777781;48.2
64862;BME280;62652;42.274;-71.436;2024-02-15T13:27:01;101230.0;;;-1.0000000000000004;48.5
64862;BME280;62652;42.274;-71.436;2024-02-15T13:28:00;101230.0;;;-1.0000000000000004;49.0
64862;BME280;62652;42.274;-71.436;2024-02-15T13:29:00;101230.0;;;-1.0000000000000004;48.3
64862;BME280;62652;42.274;-71.436;2024-02-15T13:30:00;101230.0;;;-0.8888888888888897;49.7
64862;BME280;62652;42.274;-71.436;2024-02-15T13:31:00;101230.0;;;-0.777777777777777;48.0
64862;BME280;62652;42.274;-71.436;2024-02-15T13:32:01;101220.0;;;-1.0000000000000004;47.4
64862;BME280;62652;42.274;-71.436;2024-02-15T13:33:01;101220.0;;;-1.2222222222222219;46.8
64862;BME280;62652;42.274;-71.436;2024-02-15T13:34:01;101220.0;;;-1.2222222222222219;46.9
64862;BME280;62652;42.274;-71.436;2024-02-15T13:35:01;101220.0;;;-1.2222222222222219;48.1
64862;BME280;62652;42.274;-71.436;2024-02-15T13:36:01;101220.0;;;-1.1111111111111112;48.3
64862;BME280;62652;42.274;-71.436;2024-02-15T13:37:01;101220.0;;;-1.2222222222222219;47.6
64862;BME280;62652;42.274;-71.436;2024-02-15T13:38:00;101230.0;;;-1.2222222222222219;48.5
64862;BME280;62652;42.274;-71.436;2024-02-15T13:39:00;101220.0;;;-1.2777777777777781;48.8
64862;BME280;62652;42.274;-71.436;2024-02-15T13:40:00;101220.0;;;-1.2777777777777781;48.5
64862;BME280;62652;42.274;-71.436;2024-02-15T13:41:00;101220.0;;;-1.3888888888888888;47.8
64862;BME280;62652;42.274;-71.436;2024-02-15T13:42:01;101220.0;;;-1.3888888888888888;48.1
64862;BME280;62652;42.274;-71.436;2024-02-15T13:43:01;101210.0;;;-1.3888888888888888;48.9
64862;BME280;62652;42.274;-71.436;2024-02-15T13:44:01;101220.0;;;-1.3888888888888888;48.0
64862;BME280;62652;42.274;-71.436;2024-02-15T13:45:00;101220.0;;;-1.3888888888888888;48.7
64862;BME280;62652;42.274;-71.436;2024-02-15T13:46:01;101220.0;;;-1.2777777777777781;48.2
64862;BME280;62652;42.274;-71.436;2024-02-15T13:47:00;101210.0;;;-1.4999999999999996;47.2
64862;BME280;62652;42.274;-71.436;2024-02-15T13:48:01;101210.0;;;-1.6111111111111103;48.0
64862;BME280;62652;42.274;-71.436;2024-02-15T13:49:01;101200.0;;;-1.4999999999999996;48.6
64862;BME280;62652;42.274;-71.436;2024-02-15T13:50:00;101200.0;;;-1.3888888888888888;48.2
64862;BME280;62652;42.274;-71.436;2024-02-15T13:51:00;101200.0;;;-1.2777777777777781;49.1
64862;BME280;62652;42.274;-71.436;2024-02-15T13:52:01;101200.0;;;-1.2222222222222219;48.6
64862;BME280;62652;42.274;-71.436;2024-02-15T13:53:01;101190.0;;;-1.0000000000000004;47.5
64862;BME280;62652;42.274;-71.436;2024-02-15T13:54:00;101200.0;;;-1.1111111111111112;47.8
64862;BME280;62652;42.274;-71.436;2024-02-15T13:55:00;101190.0;;;-1.0000000000000004;48.1
64862;BME280;62652;42.274;-71.436;2024-02-15T13:56:01;101190.0;;;-0.8888888888888897;48.3
64862;BME280;62652;42.274;-71.436;2024-02-15T13:57:02;101200.0;;;-0.8888888888888897;48.2
64862;BME280;62652;42.274;-71.436;2024-02-15T13:58:01;101190.0;;;-0.777777777777777;48.2
64862;BME280;62652;42.274;-71.436;2024-02-15T13:59:00;101190.0;;;-0.4999999999999992;47.7
64862;BME280;62652;42.274;-71.436;2024-02-15T14:00:00;101190.0;;;-0.3888888888888885;47.1
64862;BME280;62652;42.274;-71.436;2024-02-15T14:01:01;101190.0;;;-0.3888888888888885;46.6
64862;BME280;62652;42.274;-71.436;2024-02-15T14:02:01;101190.0;;;-0.2777777777777778;47.4
64862;BME280;62652;42.274;-71.436;2024-02-15T14:03:01;101200.0;;;-0.22222222222222143;48.1
64862;BME280;62652;42.274;-71.436;2024-02-15T14:04:01;101190.0;;;-0.11111111111111072;46.7
64862;BME280;62652;42.274;-71.436;2024-02-15T14:05:00;101200.0;;;0.0;46.7
64862;BME280;62652;42.274;-71.436;2024-02-15T14:06:00;101190.0;;;0.0;47.0
64862;BME280;62652;42.274;-71.436;2024-02-15T14:07:00;101200.0;;;0.22222222222222143;46.6
64862;BME280;62652;42.274;-71.436;2024-02-15T14:08:03;101200.0;;;0.2777777777777778;46.3
64862;BME280;62652;42.274;-71.436;2024-02-15T14:09:00;101190.0;;;0.2777777777777778;46.5
64862;BME280;62652;42.274;-71.436;2024-02-15T14:10:01;101200.0;;;0.6111111111111119;45.5
64862;BME280;62652;42.274;-71.436;2024-02-15T14:11:01;101200.0;;;0.6111111111111119;46.7
64862;BME280;62652;42.274;-71.436;2024-02-15T14:12:00;101200.0;;;0.777777777777777;44.8
64862;BME280;62652;42.274;-71.436;2024-02-15T14:13:01;101190.0;;;0.4999999999999992;45.4
64862;BME280;62652;42.274;-71.436;2024-02-15T14:14:00;101190.0;;;0.6111111111111119;44.7
64862;BME280;62652;42.274;-71.436;2024-02-15T14:15:00;101190.0;;;0.6111111111111119;45.5
64862;BME280;62652;42.274;-71.436;2024-02-15T14:16:01;101190.0;;;0.7222222222222207;45.9
64862;BME280;62652;42.274;-71.436;2024-02-15T14:17:00;101190.0;;;0.6111111111111119;45.6
64862;BME280;62652;42.274;-71.436;2024-02-15T14:18:00;101190.0;;;0.8888888888888897;46.2
64862;BME280;62652;42.274;-71.436;2024-02-15T14:19:01;101190.0;;;1.1111111111111112;46.2
64862;BME280;62652;42.274;-71.436;2024-02-15T14:20:00;101190.0;;;1.2222222222222239;46.5
64862;BME280;62652;42.274;-71.436;2024-02-15T14:21:01;101190.0;;;1.2222222222222239;45.7
64862;BME280;62652;42.274;-71.436;2024-02-15T14:22:00;101190.0;;;1.3888888888888888;42.7
64862;BME280;62652;42.274;-71.436;2024-02-15T14:23:01;101190.0;;;1.3888888888888888;42.1
64862;BME280;62652;42.274;-71.436;2024-02-15T14:24:01;101190.0;;;1.2777777777777761;42.8
64862;BME280;62652;42.274;-71.436;2024-02-15T14:25:01;101190.0;;;1.3888888888888888;42.0
64862;BME280;62652;42.274;-71.436;2024-02-15T14:26:00;101190.0;;;1.3888888888888888;42.8
64862;BME280;62652;42.274;-71.436;2024-02-15T14:27:02;101190.0;;;1.5000000000000016;44.3
64862;BME280;62652;42.274;-71.436;2024-02-15T14:28:00;101190.0;;;1.722222222222223;43.0
64862;BME280;62652;42.274;-71.436;2024-02-15T14:29:01;101190.0;;;1.3888888888888888;40.8
64862;BME280;62652;42.274;-71.436;2024-02-15T14:30:01;101200.0;;;1.2222222222222239;41.8
64862;BME280;62652;42.274;-71.436;2024-02-15T14:31:00;101200.0;;;1.3888888888888888;42.0
64862;BME280;62652;42.274;-71.436;2024-02-15T14:32:01;101200.0;;;1.2222222222222239;41.4
64862;BME280;62652;42.274;-71.436;2024-02-15T14:33:01;101210.0;;;1.2222222222222239;41.7
64862;BME280;62652;42.274;-71.436;2024-02-15T14:34:00;101210.0;;;1.2777777777777761;41.7
64862;BME280;62652;42.274;-71.436;2024-02-15T14:35:00;101210.0;;;1.2777777777777761;41.5
64862;BME280;62652;42.274;-71.436;2024-02-15T14:36:00;101200.0;;;1.3888888888888888;41.8
64862;BME280;62652;42.274;-71.436;2024-02-15T14:37:00;101200.0;;;1.5000000000000016;43.6
64862;BME280;62652;42.274;-71.436;2024-02-15T14:38:02;101210.0;;;1.722222222222223;44.0
64862;BME280;62652;42.274;-71.436;2024-02-15T14:39:01;101210.0;;;1.7777777777777795;41.7
64862;BME280;62652;42.274;-71.436;2024-02-15T14:40:00;101200.0;;;1.7777777777777795;40.5
64862;BME280;62652;42.274;-71.436;2024-02-15T14:41:01;101210.0;;;1.7777777777777795;41.2
64862;BME280;62652;42.274;-71.436;2024-02-15T14:42:01;101200.0;;;2.000000000000001;40.8
64862;BME280;62652;42.274;-71.436;2024-02-15T14:43:01;101200.0;;;1.722222222222223;39.9
64862;BME280;62652;42.274;-71.436;2024-02-15T14:44:00;101210.0;;;1.3888888888888888;42.5
64862;BME280;62652;42.274;-71.436;2024-02-15T14:45:01;101200.0;;;1.5000000000000016;41.4
64862;BME280;62652;42.274;-71.436;2024-02-15T14:46:00;101200.0;;;1.6111111111111103;40.2
64862;BME280;62652;42.274;-71.436;2024-02-15T14:47:00;101200.0;;;1.6111111111111103;40.4
64862;BME280;62652;42.274;-71.436;2024-02-15T14:48:00;101190.0;;;1.722222222222223;41.8
64862;BME280;62652;42.274;-71.436;2024-02-15T14:49:01;101180.0;;;1.7777777777777795;41.0
64862;BME280;62652;42.274;-71.436;2024-02-15T14:50:00;101180.0;;;1.7777777777777795;40.8
64862;BME280;62652;42.274;-71.436;2024-02-15T14:51:01;101190.0;;;2.000000000000001;39.3
64862;BME280;62652;42.274;-71.436;2024-02-15T14:52:01;101190.0;;;2.1111111111111094;39.9
64862;BME280;62652;42.274;-71.436;2024-02-15T14:53:00;101180.0;;;2.2777777777777786;40.4
64862;BME280;62652;42.274;-71.436;2024-02-15T14:54:00;101180.0;;;2.2222222222222223;39.0
64862;BME280;62652;42.274;-71.436;2024-02-15T14:55:00;101190.0;;;2.1111111111111094;38.6
64862;BME280;62652;42.274;-71.436;2024-02-15T14:56:00;101180.0;;;1.7777777777777795;39.4
64862;BME280;62652;42.274;-71.436;2024-02-15T14:57:00;101180.0;;;1.8888888888888882;38.9
64862;BME280;62652;42.274;-71.436;2024-02-15T14:58:01;101190.0;;;1.8888888888888882;39.1
64862;BME280;62652;42.274;-71.436;2024-02-15T14:59:00;101190.0;;;1.722222222222223;38.7
64862;BME280;62652;42.274;-71.436;2024-02-15T15:00:00;101190.0;;;1.7777777777777795;39.7
64862;BME280;62652;42.274;-71.436;2024-02-15T15:01:01;101180.0;;;1.8888888888888882;40.4
64862;BME280;62652;42.274;-71.436;2024-02-15T15:02:01;101190.0;;;2.1111111111111094;40.0
64862;BME280;62652;42.274;-71.436;2024-02-15T15:03:01;101190.0;;;2.2777777777777786;40.5
64862;BME280;62652;42.274;-71.436;2024-02-15T15:04:01;101190.0;;;2.7222222222222214;38.7
64862;BME280;62652;42.274;-71.436;2024-02-15T15:05:01;101190.0;;;2.7777777777777777;39.3
64862;BME280;62652;42.274;-71.436;2024-02-15T15:06:00;101200.0;;;2.7777777777777777;37.8
64862;BME280;62652;42.274;-71.436;2024-02-15T15:07:00;101200.0;;;2.7222222222222214;38.3
64862;BME280;62652;42.274;-71.436;2024-02-15T15:08:01;101190.0;;;2.7777777777777777;37.6
64862;BME280;62652;42.274;-71.436;2024-02-15T15:09:01;101200.0;;;2.7777777777777777;37.4
64862;BME280;62652;42.274;-71.436;2024-02-15T15:10:00;101190.0;;;2.7222222222222214;37.5
64862;BME280;62652;42.274;-71.436;2024-02-15T15:11:01;101190.0;;;2.7222222222222214;37.4
64862;BME280;62652;42.274;-71.436;2024-02-15T15:12:00;101200.0;;;2.8888888888888906;37.7
64862;BME280;62652;42.274;-71.436;2024-02-15T15:13:00;101190.0;;;2.6111111111111125;38.1
64862;BME280;62652;42.274;-71.436;2024-02-15T15:14:01;101190.0;;;2.7222222222222214;38.1
64862;BME280;62652;42.274;-71.436;2024-02-15T15:15:00;101190.0;;;2.7777777777777777;38.3
64862;BME280;62652;42.274;-71.436;2024-02-15T15:16:01;101190.0;;;2.8888888888888906;38.2
64862;BME280;62652;42.274;-71.436;2024-02-15T15:17:00;101180.0;;;2.7777777777777777;37.5
64862;BME280;62652;42.274;-71.436;2024-02-15T15:18:00;101190.0;;;2.7222222222222214;37.3
64862;BME280;62652;42.274;-71.436;2024-02-15T15:19:01;101180.0;;;2.6111111111111125;36.7
64862;BME280;62652;42.274;-71.436;2024-02-15T15:20:00;101180.0;;;2.3888888888888875;36.8
64862;BME280;62652;42.274;-71.436;2024-02-15T15:21:00;101180.0;;;2.5;37.8
64862;BME280;62652;42.274;-71.436;2024-02-15T15:22:01;101180.0;;;2.6111111111111125;37.1
64862;BME280;62652;42.274;-71.436;2024-02-15T15:23:01;101180.0;;;2.8888888888888906;37.9
64862;BME280;62652;42.274;-71.436;2024-02-15T15:24:01;101180.0;;;2.8888888888888906;37.2
64862;BME280;62652;42.274;-71.436;2024-02-15T15:25:01;101180.0;;;2.8888888888888906;36.2
64862;BME280;62652;42.274;-71.436;2024-02-15T15:26:01;101180.0;;;2.999999999999999;37.0
64862;BME280;62652;42.274;-71.436;2024-02-15T15:27:01;101180.0;;;2.7777777777777777;37.2
64862;BME280;62652;42.274;-71.436;2024-02-15T15:28:01;101180.0;;;2.8888888888888906;36.5
64862;BME280;62652;42.274;-71.436;2024-02-15T15:29:01;101180.0;;;2.999999999999999;36.2
64862;BME280;62652;42.274;-71.436;2024-02-15T15:30:00;101180.0;;;2.999999999999999;35.2
64862;BME280;62652;42.274;-71.436;2024-02-15T15:31:00;101180.0;;;3.2222222222222205;36.0
64862;BME280;62652;42.274;-71.436;2024-02-15T15:32:00;101180.0;;;3.277777777777777;36.3
64862;BME280;62652;42.274;-71.436;2024-02-15T15:33:00;101180.0;;;3.111111111111112;35.2